Alexandria/Louisiana

Airport
ICAO code: 
KAEX
Summary
ICAO Region: 
NAM
Territory: 
Location: 
Alexandria, Rapides Parish, Louisiana,
Coordinates: 
Aerial View: 
31° 19' 37.999" N, 92° 32' 53.999" W
Metar
Observation
KAEX 271121Z 33003KT 1/4SM FG VV001 01/00 A3016 RMK AO2 T00110000
Station
Alexandria, Alexandria International Airport
Date/Time
2021-11-27 11:21:00
Wind direction
330°
Wind speed
03 kts
Lowest cloud amount
n/a
Temperature
1.1°C
Dew point
0°C
Humidity
92%
Weather condition
fog

Description

Alexandria International Airport is a public use airport located 4 nm west of the central business district of Alexandria, in Rapides Parish, Louisiana, United States.

Climatology

Humid “subtropical” climate (Köppen climate classification Cfa) - characterized by hot, humid summers and cool winters. Significant amounts of precipitation occur in all seasons in most areas. Winter rainfall (and sometimes snowfall) is associated with large storms that the westerlies steer from west to east. Most summer rainfall occurs during thunderstorms and occasional tropical storms (hurricanes).

Runways

Designator Length Width Surface Rops
18/36 2134 46 ASP Yes/Yes
14/32 2850 46 CON Yes/Yes
Airport map: 
Aerial View: 

SKYbrary Partners:

Safety knowledge contributed by: